Time;durP1;ratioP1;P1;durP2;ratioP2;P2;SDS_P1;SDS_P2;PMS_P1;PMS_P2;Temp;Humidity;BMP_temperature;BMP_pressure;BME280_temperature;BME280_humidity;BME280_pressure;Samples;Min_cycle;Max_cycle;Signal;HPM_P1;HPM_P2
2023/03/09 00:00:24;;;;;;;;;;;;;;;11.69;57.78;98752.63;5411838;32;35898;-69
2023/03/09 00:03:26;;;;;;;;;;;;;;;11.68;57.64;98764.09;5404202;32;34721;-65
2023/03/09 00:06:28;;;;;;;;;;;;;;;12.17;56.71;98751.00;5411538;32;34920;-65
2023/03/09 00:09:30;;;;;;;;;;;;;;;12.17;56.12;98755.41;5422161;32;34687;-66
2023/03/09 00:12:31;;;;;;;;;;;;;;;11.55;57.88;98743.06;5401895;32;36107;-69
2023/03/09 00:15:33;;;;;;;;;;;;;;;11.95;56.92;98742.09;5401869;32;35653;-65
2023/03/09 00:18:35;;;;;;;;;;;;;;;11.92;56.84;98746.62;5400390;32;35777;-72
2023/03/09 00:21:39;;;;;;;;;;;;;;;12.14;56.44;98748.56;5397579;32;34737;-70
2023/03/09 00:24:46;;;;;;;;;;;;;;;11.98;56.35;98750.63;5406000;32;34735;-73
2023/03/09 00:27:48;;;;;;;;;;;;;;;12.25;55.73;98752.25;5402112;32;45001;-65
2023/03/09 00:30:50;;;;;;;;;;;;;;;12.20;55.94;98749.94;5415238;32;35847;-70
2023/03/09 00:33:52;;;;;;;;;;;;;;;12.31;55.50;98744.75;5400091;32;36229;-69
2023/03/09 00:36:54;;;;;;;;;;;;;;;12.32;55.63;98742.94;5413562;32;36157;-70
2023/03/09 00:39:56;;;;;;;;;;;;;;;12.51;55.01;98739.81;5400593;32;35389;-71
2023/03/09 00:42:58;;;;;;;;;;;;;;;12.49;54.85;98732.00;5388080;32;36292;-66
2023/03/09 00:45:59;;;;;;;;;;;;;;;12.71;54.47;98744.47;5396317;32;36923;-65
2023/03/09 00:49:03;;;;;;;;;;;;;;;12.61;54.64;98735.53;5383797;32;35342;-66
2023/03/09 00:52:05;;;;;;;;;;;;;;;12.60;54.54;98728.59;5402008;32;34010;-71
2023/03/09 00:55:07;;;;;;;;;;;;;;;12.42;55.16;98725.50;5400472;32;36163;-71
2023/03/09 00:58:09;;;;;;;;;;;;;;;12.50;55.03;98722.34;5412731;32;35001;-69
2023/03/09 01:01:12;;;;;;;;;;;;;;;12.61;54.46;98719.72;5376738;32;34779;-65
2023/03/09 01:04:14;;;;;;;;;;;;;;;12.18;55.33;98717.59;5409962;32;47764;-66
2023/03/09 01:07:17;;;;;;;;;;;;;;;12.80;54.21;98719.19;5416757;32;34731;-70
2023/03/09 01:10:18;;;;;;;;;;;;;;;12.31;55.83;98713.13;5404160;32;36183;-69
2023/03/09 01:13:20;;;;;;;;;;;;;;;12.45;55.03;98712.97;5415270;32;34715;-65
2023/03/09 01:16:22;;;;;;;;;;;;;;;12.56;55.14;98711.31;5406953;32;35508;-65
2023/03/09 01:19:24;;;;;;;;;;;;;;;12.69;54.75;98712.97;5410843;32;36084;-65
2023/03/09 01:22:26;;;;;;;;;;;;;;;12.82;54.21;98718.16;5401792;32;35557;-66
2023/03/09 01:25:28;;;;;;;;;;;;;;;12.31;55.49;98702.59;5406952;32;36032;-65
2023/03/09 01:28:30;;;;;;;;;;;;;;;12.76;54.53;98702.78;5379097;32;36427;-70
2023/03/09 01:31:32;;;;;;;;;;;;;;;12.44;55.61;98702.53;5410428;32;34661;-70
2023/03/09 01:34:34;;;;;;;;;;;;;;;12.38;55.22;98690.66;5399702;32;35199;-70
2023/03/09 01:37:36;;;;;;;;;;;;;;;12.95;53.99;98671.44;5400392;32;35007;-69
2023/03/09 01:40:38;;;;;;;;;;;;;;;12.63;54.26;98675.66;5412776;32;34860;-65
2023/03/09 01:43:41;;;;;;;;;;;;;;;12.21;55.97;98685.75;5378287;32;34713;-65
2023/03/09 01:46:46;;;;;;;;;;;;;;;12.43;55.59;98677.16;5389384;32;46798;-66
2023/03/09 01:49:48;;;;;;;;;;;;;;;12.26;55.92;98677.53;5406236;32;35427;-66
2023/03/09 01:52:51;;;;;;;;;;;;;;;12.38;55.66;98666.94;5386872;32;35953;-69
2023/03/09 01:55:53;;;;;;;;;;;;;;;12.22;56.13;98665.53;5399714;32;34687;-66
2023/03/09 01:58:55;;;;;;;;;;;;;;;11.89;57.04;98661.75;5401782;32;35048;-65
2023/03/09 02:01:57;;;;;;;;;;;;;;;11.97;56.97;98664.66;5404590;32;35961;-69
2023/03/09 02:04:59;;;;;;;;;;;;;;;11.95;57.18;98656.06;5385193;32;35280;-65
2023/03/09 02:08:01;;;;;;;;;;;;;;;11.98;57.13;98654.97;5396644;32;35842;-65
2023/03/09 02:11:04;;;;;;;;;;;;;;;11.72;57.89;98654.19;5394303;32;35538;-66
2023/03/09 02:14:06;;;;;;;;;;;;;;;12.05;57.02;98649.19;5370862;32;35539;-69
2023/03/09 02:17:11;;;;;;;;;;;;;;;12.04;57.03;98657.16;5403912;32;34661;-70
2023/03/09 02:20:19;;;;;;;;;;;;;;;11.82;57.65;98645.56;5388237;32;45274;-66
2023/03/09 02:23:44;;;;;;;;;;;;;;;11.85;57.66;98640.09;5398046;32;36279;-69
2023/03/09 02:26:47;;;;;;;;;;;;;;;11.76;58.00;98645.13;5398327;32;44637;-69
2023/03/09 02:29:49;;;;;;;;;;;;;;;11.55;58.76;98644.87;5399544;32;35026;-65
2023/03/09 02:32:51;;;;;;;;;;;;;;;11.71;58.38;98634.91;5402243;32;34815;-70
2023/03/09 02:35:53;;;;;;;;;;;;;;;11.74;58.15;98629.44;5389061;32;37973;-65
2023/03/09 02:38:56;;;;;;;;;;;;;;;11.76;58.28;98629.34;5414183;32;34783;-66
2023/03/09 02:41:58;;;;;;;;;;;;;;;11.89;57.82;98633.62;5378148;32;35369;-64
2023/03/09 02:45:00;;;;;;;;;;;;;;;11.83;58.00;98631.44;5388905;32;35323;-65
2023/03/09 02:48:01;;;;;;;;;;;;;;;11.95;57.70;98629.72;5410537;32;35501;-69
2023/03/09 02:51:05;;;;;;;;;;;;;;;11.93;57.64;98624.56;5403108;32;34938;-68
2023/03/09 02:54:07;;;;;;;;;;;;;;;11.82;57.90;98611.34;5400624;32;35525;-71
2023/03/09 02:57:09;;;;;;;;;;;;;;;11.64;58.57;98624.00;5402005;32;35866;-65
2023/03/09 03:00:12;;;;;;;;;;;;;;;11.32;59.64;98638.56;5412635;32;35865;-65
2023/03/09 03:03:14;;;;;;;;;;;;;;;11.37;59.65;98645.19;5401930;32;44804;-66
2023/03/09 03:06:16;;;;;;;;;;;;;;;11.63;59.02;98655.69;5406781;32;36180;-68
2023/03/09 03:09:18;;;;;;;;;;;;;;;11.68;58.64;98648.31;5395455;32;35270;-64
2023/03/09 03:12:20;;;;;;;;;;;;;;;11.68;58.53;98644.84;5401876;32;35590;-65
2023/03/09 03:15:21;;;;;;;;;;;;;;;11.29;59.79;98637.00;5418607;32;36284;-64
2023/03/09 03:18:23;;;;;;;;;;;;;;;11.56;59.19;98654.44;5388012;32;34820;-69
2023/03/09 03:21:25;;;;;;;;;;;;;;;11.40;59.50;98662.59;5413698;32;36137;-69
2023/03/09 03:24:27;;;;;;;;;;;;;;;11.44;59.40;98668.44;5404080;32;35295;-69
2023/03/09 03:27:29;;;;;;;;;;;;;;;11.48;59.36;98649.72;5392232;32;34865;-69
2023/03/09 03:30:31;;;;;;;;;;;;;;;11.39;59.51;98635.41;5410306;32;35320;-65
2023/03/09 03:33:34;;;;;;;;;;;;;;;11.26;59.94;98641.63;5399262;32;35774;-69
2023/03/09 03:36:35;;;;;;;;;;;;;;;11.11;60.52;98643.53;5389243;32;35957;-66
2023/03/09 03:39:37;;;;;;;;;;;;;;;11.10;60.50;98637.44;5400882;32;35255;-69
2023/03/09 03:42:39;;;;;;;;;;;;;;;10.85;61.38;98643.53;5380407;32;34470;-69
2023/03/09 03:45:41;;;;;;;;;;;;;;;10.88;61.40;98644.25;5406842;32;34767;-68
2023/03/09 03:48:43;;;;;;;;;;;;;;;10.74;61.82;98653.91;5404078;32;42810;-69
2023/03/09 03:51:45;;;;;;;;;;;;;;;10.67;62.20;98665.78;5414061;32;35043;-69
2023/03/09 03:54:47;;;;;;;;;;;;;;;10.64;62.21;98655.50;5401908;32;34729;-69
2023/03/09 03:57:48;;;;;;;;;;;;;;;10.35;63.27;98646.06;5418243;32;36087;-69
2023/03/09 04:00:50;;;;;;;;;;;;;;;10.00;64.66;98636.06;5388951;32;35892;-70
2023/03/09 04:03:52;;;;;;;;;;;;;;;10.09;64.54;98643.31;5386078;32;36029;-65
2023/03/09 04:06:54;;;;;;;;;;;;;;;10.02;64.91;98642.88;5409972;32;35403;-68
2023/03/09 04:09:56;;;;;;;;;;;;;;;10.17;64.31;98638.41;5407005;32;35328;-70
2023/03/09 04:12:59;;;;;;;;;;;;;;;9.90;64.96;98629.69;5412021;32;36057;-70
2023/03/09 04:16:01;;;;;;;;;;;;;;;10.09;64.81;98639.84;5402550;32;34808;-70
2023/03/09 04:19:03;;;;;;;;;;;;;;;10.12;64.63;98637.88;5413197;32;34763;-65
2023/03/09 04:22:04;;;;;;;;;;;;;;;10.04;64.82;98634.91;5408443;32;34831;-66
2023/03/09 04:25:06;;;;;;;;;;;;;;;10.07;64.84;98641.75;5400086;32;36228;-70
2023/03/09 04:28:08;;;;;;;;;;;;;;;9.77;65.86;98629.66;5402694;32;34751;-69
2023/03/09 04:31:11;;;;;;;;;;;;;;;9.62;66.56;98622.75;5389818;32;34620;-65
2023/03/09 04:34:13;;;;;;;;;;;;;;;9.46;67.02;98626.31;5410860;32;44898;-68
2023/03/09 04:37:15;;;;;;;;;;;;;;;9.74;66.31;98627.22;5386884;32;36167;-68
2023/03/09 04:40:17;;;;;;;;;;;;;;;9.91;65.61;98639.25;5414422;32;37280;-70
2023/03/09 04:43:19;;;;;;;;;;;;;;;10.03;65.20;98631.44;5379324;32;35507;-69
2023/03/09 04:46:21;;;;;;;;;;;;;;;9.96;65.18;98613.56;5398234;32;35682;-72
2023/03/09 04:49:23;;;;;;;;;;;;;;;9.63;66.56;98592.97;5385643;32;35857;-65
2023/03/09 04:52:25;;;;;;;;;;;;;;;9.34;67.76;98593.03;5408624;32;35054;-69
2023/03/09 04:55:27;;;;;;;;;;;;;;;9.39;67.90;98597.97;5410822;32;35986;-69
2023/03/09 04:58:29;;;;;;;;;;;;;;;9.62;67.07;98605.22;5372017;32;933213;-65
2023/03/09 05:01:30;;;;;;;;;;;;;;;9.66;66.73;98601.50;5414563;32;35396;-70
2023/03/09 05:04:32;;;;;;;;;;;;;;;9.60;67.20;98604.50;5398977;32;34839;-65
2023/03/09 05:07:35;;;;;;;;;;;;;;;9.75;66.45;98595.62;5414056;32;35948;-71
2023/03/09 05:10:37;;;;;;;;;;;;;;;9.68;66.87;98609.25;5401562;32;35952;-70
2023/03/09 05:13:39;;;;;;;;;;;;;;;9.60;67.18;98616.78;5402392;32;36629;-69
2023/03/09 05:16:40;;;;;;;;;;;;;;;9.60;67.39;98614.16;5401434;32;35969;-70
2023/03/09 05:19:42;;;;;;;;;;;;;;;9.73;66.63;98592.28;5400489;32;45394;-65
2023/03/09 05:22:44;;;;;;;;;;;;;;;9.63;67.24;98609.53;5414524;32;35293;-65
2023/03/09 05:25:54;;;;;;;;;;;;;;;9.77;66.76;98596.38;5386471;32;37704;-70
2023/03/09 05:28:56;;;;;;;;;;;;;;;9.93;66.29;98613.78;5410678;32;34634;-69
2023/03/09 05:31:58;;;;;;;;;;;;;;;9.83;66.30;98617.91;5403008;32;36005;-66
2023/03/09 05:35:00;;;;;;;;;;;;;;;9.83;66.59;98620.53;5386322;32;36055;-66
2023/03/09 05:41:22;;;;;;;;;;;;;;;9.83;66.58;98617.91;5461020;27;20096;-70
2023/03/09 05:44:24;;;;;;;;;;;;;;;9.69;66.57;98585.53;5329002;32;35300;-69
2023/03/09 05:47:26;;;;;;;;;;;;;;;9.92;66.31;98617.34;5346084;32;36119;-69
2023/03/09 05:50:28;;;;;;;;;;;;;;;9.96;66.31;98621.44;5320362;32;34732;-64
2023/03/09 05:53:30;;;;;;;;;;;;;;;10.07;65.86;98615.50;5351299;32;35205;-69
2023/03/09 05:56:32;;;;;;;;;;;;;;;10.10;65.84;98594.28;5332354;32;35455;-63
2023/03/09 05:59:34;;;;;;;;;;;;;;;10.16;65.56;98614.87;5340257;32;35402;-63
2023/03/09 06:02:36;;;;;;;;;;;;;;;10.20;65.48;98625.09;5355307;32;35884;-64
2023/03/09 06:05:38;;;;;;;;;;;;;;;10.12;65.73;98635.25;5319694;32;35589;-64
2023/03/09 06:08:40;;;;;;;;;;;;;;;10.28;65.62;98616.75;5362763;32;35993;-63
2023/03/09 06:11:42;;;;;;;;;;;;;;;9.92;66.28;98599.81;5344875;32;35730;-73
2023/03/09 06:14:46;;;;;;;;;;;;;;;11.05;62.58;98601.91;5362632;32;35692;-69
2023/03/09 06:17:48;;;;;;;;;;;;;;;11.28;61.50;98616.94;5326414;32;36367;-68
2023/03/09 06:20:50;;;;;;;;;;;;;;;11.23;61.71;98633.97;5328282;32;35653;-69
2023/03/09 06:23:54;;;;;;;;;;;;;;;11.09;62.12;98632.31;5345797;32;35363;-62
2023/03/09 06:26:56;;;;;;;;;;;;;;;11.04;63.19;98634.41;5339068;32;35235;-65
2023/03/09 06:29:58;;;;;;;;;;;;;;;11.08;61.87;98646.41;5345977;32;35565;-65
2023/03/09 06:33:00;;;;;;;;;;;;;;;10.87;63.28;98645.22;5356298;32;35159;-64
2023/03/09 06:36:02;;;;;;;;;;;;;;;11.63;61.29;98637.25;5348353;32;35462;-63
2023/03/09 06:39:04;;;;;;;;;;;;;;;12.12;59.33;98631.16;5346626;32;35789;-66
2023/03/09 06:42:06;;;;;;;;;;;;;;;12.46;57.72;98618.94;5349025;32;34892;-68
2023/03/09 06:45:09;;;;;;;;;;;;;;;12.33;58.21;98629.56;5351184;32;44660;-67
2023/03/09 06:48:11;;;;;;;;;;;;;;;12.19;58.33;98633.22;5352691;32;34789;-62
2023/03/09 06:51:13;;;;;;;;;;;;;;;12.40;57.92;98628.13;5374856;32;35060;-73
2023/03/09 06:54:15;;;;;;;;;;;;;;;12.55;57.66;98641.12;5359086;32;34780;-73
2023/03/09 06:57:17;;;;;;;;;;;;;;;12.33;58.19;98645.34;5362722;32;34728;-63
2023/03/09 07:00:19;;;;;;;;;;;;;;;12.74;57.08;98636.16;5349584;32;35832;-72
2023/03/09 07:03:21;;;;;;;;;;;;;;;12.32;58.49;98627.88;5360290;32;35291;-62
2023/03/09 07:06:23;;;;;;;;;;;;;;;12.47;57.42;98639.91;5351913;32;35594;-74
2023/03/09 07:09:25;;;;;;;;;;;;;;;11.90;60.26;98637.94;5359993;32;35507;-63
2023/03/09 07:12:27;;;;;;;;;;;;;;;12.21;59.10;98630.44;5366318;32;35154;-61
2023/03/09 07:15:30;;;;;;;;;;;;;;;12.68;57.69;98633.97;5372149;32;36161;-63
2023/03/09 07:18:32;;;;;;;;;;;;;;;12.20;59.13;98636.69;5366515;32;35922;-70
2023/03/09 07:21:34;;;;;;;;;;;;;;;12.64;57.87;98629.91;5354798;32;36172;-63
2023/03/09 07:24:36;;;;;;;;;;;;;;;12.88;57.07;98633.31;5363121;32;34880;-62
2023/03/09 07:27:38;;;;;;;;;;;;;;;12.75;57.49;98629.91;5380436;32;45389;-62
2023/03/09 07:30:40;;;;;;;;;;;;;;;12.92;56.98;98634.75;5336629;32;36326;-64
2023/03/09 07:33:42;;;;;;;;;;;;;;;12.98;57.19;98641.34;5361123;32;34747;-63
2023/03/09 07:36:44;;;;;;;;;;;;;;;13.07;57.00;98652.97;5355825;32;33386;-66
2023/03/09 07:39:46;;;;;;;;;;;;;;;13.13;56.57;98663.06;5356516;32;36048;-67
2023/03/09 07:42:53;;;;;;;;;;;;;;;13.59;55.25;98654.25;5354668;32;35040;-60
2023/03/09 07:46:12;;;;;;;;;;;;;;;13.34;55.54;98645.63;5299277;32;44200;-62
2023/03/09 07:49:14;;;;;;;;;;;;;;;13.32;55.63;98644.06;5315134;32;36142;-66
2023/03/09 07:52:18;;;;;;;;;;;;;;;13.63;55.01;98640.69;5297520;32;34683;-65
2023/03/09 07:55:23;;;;;;;;;;;;;;;13.41;55.60;98641.56;5313785;32;34684;-66
2023/03/09 07:58:24;;;;;;;;;;;;;;;13.46;55.52;98639.41;5300403;32;36066;-63
2023/03/09 08:01:27;;;;;;;;;;;;;;;13.43;55.67;98644.91;5306474;32;34805;-65
2023/03/09 08:04:30;;;;;;;;;;;;;;;13.44;55.87;98654.50;5290983;32;35818;-67
2023/03/09 08:07:32;;;;;;;;;;;;;;;13.48;55.84;98645.37;5291197;32;34554;-66
2023/03/09 08:10:34;;;;;;;;;;;;;;;13.19;56.40;98636.22;5309380;32;36069;-65
2023/03/09 08:13:36;;;;;;;;;;;;;;;13.33;56.82;98638.69;5305198;32;35928;-62
2023/03/09 08:16:38;;;;;;;;;;;;;;;13.76;55.18;98656.41;5321088;32;35732;-62
2023/03/09 08:19:40;;;;;;;;;;;;;;;14.02;54.44;98643.75;5358459;32;44546;-66
2023/03/09 08:22:42;;;;;;;;;;;;;;;13.76;55.64;98657.22;5356461;32;34906;-62
2023/03/09 08:25:44;;;;;;;;;;;;;;;13.05;57.47;98679.47;5376662;32;34785;-73
2023/03/09 08:28:47;;;;;;;;;;;;;;;14.27;54.67;98690.16;5351284;32;34812;-64
2023/03/09 08:31:49;;;;;;;;;;;;;;;14.18;54.34;98706.75;5370833;32;34726;-73
2023/03/09 08:34:54;;;;;;;;;;;;;;;14.86;52.77;98708.22;5337120;32;34859;-62
2023/03/09 08:37:56;;;;;;;;;;;;;;;14.68;52.96;98707.09;5354952;32;34541;-63
2023/03/09 08:40:58;;;;;;;;;;;;;;;14.38;54.07;98695.41;5345974;32;38190;-75
2023/03/09 08:44:00;;;;;;;;;;;;;;;15.40;51.34;98686.84;5342133;32;34629;-73
2023/03/09 08:47:02;;;;;;;;;;;;;;;15.48;51.04;98682.72;5385226;32;34929;-62
2023/03/09 08:50:05;;;;;;;;;;;;;;;15.33;51.30;98669.81;5356264;32;35087;-71
2023/03/09 08:53:06;;;;;;;;;;;;;;;14.92;52.31;98660.09;5353905;32;34834;-64
2023/03/09 08:56:09;;;;;;;;;;;;;;;15.13;52.12;98682.13;5361621;32;48502;-75
2023/03/09 08:59:11;;;;;;;;;;;;;;;14.48;53.66;98683.13;5341616;32;33885;-67
2023/03/09 09:02:14;;;;;;;;;;;;;;;14.71;53.20;98667.19;5339998;32;34914;-65
2023/03/09 09:05:16;;;;;;;;;;;;;;;15.24;52.43;98681.19;5333218;32;34788;-64
2023/03/09 09:08:19;;;;;;;;;;;;;;;15.75;50.42;98682.16;5375114;32;34899;-67
2023/03/09 09:11:21;;;;;;;;;;;;;;;15.33;51.61;98695.47;5356360;32;35001;-63
2023/03/09 09:14:23;;;;;;;;;;;;;;;15.14;52.42;98688.25;5368761;32;35775;-70
2023/03/09 09:17:25;;;;;;;;;;;;;;;15.20;51.72;98686.84;5365867;32;37839;-64
2023/03/09 09:20:28;;;;;;;;;;;;;;;15.94;50.46;98698.94;5345508;32;34729;-69
2023/03/09 09:23:30;;;;;;;;;;;;;;;14.89;52.66;98710.63;5352567;32;35765;-66
2023/03/09 09:26:32;;;;;;;;;;;;;;;16.63;48.94;98718.47;5350308;32;36779;-64
2023/03/09 09:29:34;;;;;;;;;;;;;;;15.61;50.99;98726.53;5391163;32;34858;-62
2023/03/09 09:32:36;;;;;;;;;;;;;;;17.22;46.93;98728.13;5349388;32;34446;-66
2023/03/09 09:35:38;;;;;;;;;;;;;;;17.52;46.16;98719.13;5362928;32;38872;-68
2023/03/09 09:38:41;;;;;;;;;;;;;;;17.80;45.67;98725.34;5362426;32;34691;-63
2023/03/09 09:41:51;;;;;;;;;;;;;;;17.56;46.46;98715.16;5371130;32;35441;-69
2023/03/09 09:44:53;;;;;;;;;;;;;;;18.13;44.28;98698.16;5343368;32;35870;-70
2023/03/09 09:47:57;;;;;;;;;;;;;;;18.37;43.55;98710.91;5366855;32;36071;-64
2023/03/09 09:51:02;;;;;;;;;;;;;;;18.91;42.71;98718.94;5362605;32;36266;-68
2023/03/09 09:54:23;;;;;;;;;;;;;;;18.12;44.03;98720.44;5349850;32;33607;-65
2023/03/09 09:57:44;;;;;;;;;;;;;;;17.60;45.67;98716.56;5378784;32;34788;-64
2023/03/09 10:00:47;;;;;;;;;;;;;;;18.57;43.94;98695.63;5369474;32;44579;-80
2023/03/09 10:03:52;;;;;;;;;;;;;;;20.48;39.56;98689.34;5348654;32;34530;-66
2023/03/09 10:06:55;;;;;;;;;;;;;;;20.41;39.41;98688.28;5364160;32;36184;-91
2023/03/09 10:09:58;;;;;;;;;;;;;;;19.71;40.65;98707.22;5366186;32;36271;-65
2023/03/09 10:13:00;;;;;;;;;;;;;;;19.84;40.30;98719.28;5371079;32;34006;-65
2023/03/09 10:16:04;;;;;;;;;;;;;;;18.15;44.13;98721.94;5344889;32;35230;-64
2023/03/09 10:19:17;;;;;;;;;;;;;;;18.99;42.58;98719.00;5359178;32;45962;-78
2023/03/09 10:22:24;;;;;;;;;;;;;;;19.35;41.86;98714.44;5367326;32;36764;-64
2023/03/09 10:25:26;;;;;;;;;;;;;;;19.96;40.45;98694.81;5360980;32;34773;-67
2023/03/09 10:28:34;;;;;;;;;;;;;;;19.48;41.27;98706.03;5354927;32;36993;-65
2023/03/09 10:31:37;;;;;;;;;;;;;;;19.61;41.10;98713.63;5357910;32;34502;-64
2023/03/09 10:34:42;;;;;;;;;;;;;;;19.59;41.50;98712.97;5358828;32;45152;-67
2023/03/09 10:37:44;;;;;;;;;;;;;;;20.26;39.78;98711.25;5361665;32;34814;-84
2023/03/09 10:40:50;;;;;;;;;;;;;;;19.99;40.39;98721.16;5355313;32;35301;-65
2023/03/09 10:43:52;;;;;;;;;;;;;;;19.88;40.70;98724.09;5387438;32;34810;-65
2023/03/09 10:46:55;;;;;;;;;;;;;;;19.19;42.05;98716.97;5346411;32;34541;-65
2023/03/09 10:50:06;;;;;;;;;;;;;;;20.94;38.37;98710.25;5374577;32;36008;-64
2023/03/09 10:53:35;;;;;;;;;;;;;;;20.82;38.23;98707.06;5351268;32;32791;-81
2023/03/09 10:56:41;;;;;;;;;;;;;;;20.25;39.50;98721.09;5352278;32;34796;-82
2023/03/09 10:59:45;;;;;;;;;;;;;;;20.12;39.65;98723.38;5387901;32;43023;-65
2023/03/09 11:02:54;;;;;;;;;;;;;;;20.65;38.72;98714.22;5341940;32;35966;-72
2023/03/09 11:06:09;;;;;;;;;;;;;;;19.99;40.06;98723.81;5358675;32;34823;-66
2023/03/09 11:09:15;;;;;;;;;;;;;;;18.97;41.56;98718.31;5348624;32;46215;-65
2023/03/09 11:12:23;;;;;;;;;;;;;;;19.34;40.62;98723.44;5355066;32;34686;-68
2023/03/09 11:15:32;;;;;;;;;;;;;;;19.04;41.00;98723.84;5368647;32;34937;-68
2023/03/09 11:18:34;;;;;;;;;;;;;;;19.30;40.24;98719.41;5335213;32;34768;-67
2023/03/09 11:21:36;;;;;;;;;;;;;;;18.72;40.12;98725.25;5370357;32;34726;-69
2023/03/09 11:24:45;;;;;;;;;;;;;;;19.23;39.14;98720.19;5350493;32;42842;-61
2023/03/09 11:27:49;;;;;;;;;;;;;;;19.16;38.93;98714.63;5357061;32;34739;-80
2023/03/09 11:30:51;;;;;;;;;;;;;;;18.95;39.35;98725.63;5352239;32;34922;-70
2023/03/09 11:33:55;;;;;;;;;;;;;;;18.39;40.76;98722.22;5357057;32;37849;-63
2023/03/09 11:37:00;;;;;;;;;;;;;;;18.89;39.83;98731.56;5386526;32;35375;-66
2023/03/09 11:40:10;;;;;;;;;;;;;;;18.92;39.61;98705.44;5358631;32;34879;-79
2023/03/09 11:43:15;;;;;;;;;;;;;;;18.87;39.27;98726.41;5356470;32;44498;-74
2023/03/09 11:46:17;;;;;;;;;;;;;;;18.42;39.62;98742.38;5336117;32;36535;-68
2023/03/09 11:49:23;;;;;;;;;;;;;;;18.39;39.10;98751.47;5356557;32;35968;-69
2023/03/09 11:52:27;;;;;;;;;;;;;;;17.49;40.41;98753.91;5365594;32;35090;-81
2023/03/09 11:55:37;;;;;;;;;;;;;;;18.11;39.40;98766.63;5347124;32;36153;-67
2023/03/09 11:58:40;;;;;;;;;;;;;;;18.80;38.26;98769.72;5361730;32;44594;-80
2023/03/09 12:01:47;;;;;;;;;;;;;;;18.85;37.95;98764.78;5352311;32;34763;-76
2023/03/09 12:04:50;;;;;;;;;;;;;;;19.60;36.77;98775.94;5356735;32;36719;-75
2023/03/09 12:07:54;;;;;;;;;;;;;;;20.34;35.67;98774.47;5353939;32;34864;-67
2023/03/09 12:10:56;;;;;;;;;;;;;;;19.96;36.18;98785.47;5339391;32;34771;-74
2023/03/09 12:14:07;;;;;;;;;;;;;;;18.81;38.68;98790.88;5382055;32;34695;-68
2023/03/09 12:17:16;;;;;;;;;;;;;;;19.07;38.25;98798.94;5349607;32;44889;-65
2023/03/09 12:20:19;;;;;;;;;;;;;;;18.45;39.65;98791.78;5380326;32;34733;-73
2023/03/09 12:23:36;;;;;;;;;;;;;;;18.82;39.28;98805.84;5355635;32;36928;-65
2023/03/09 12:26:38;;;;;;;;;;;;;;;18.49;39.33;98803.81;5356761;32;44601;-78
2023/03/09 12:29:43;;;;;;;;;;;;;;;18.06;40.53;98807.91;5361654;32;36310;-73
2023/03/09 12:32:45;;;;;;;;;;;;;;;18.46;39.55;98815.56;5357428;32;34715;-68
2023/03/09 12:35:47;;;;;;;;;;;;;;;18.88;37.88;98810.59;5368202;32;39021;-76
2023/03/09 12:39:13;;;;;;;;;;;;;;;19.30;37.46;98809.12;5358758;32;35251;-69
2023/03/09 12:42:15;;;;;;;;;;;;;;;18.57;38.84;98825.16;5347123;32;44634;-71
2023/03/09 12:45:22;;;;;;;;;;;;;;;18.06;38.28;98829.19;5360356;32;36251;-74
2023/03/09 12:48:27;;;;;;;;;;;;;;;17.63;38.28;98832.31;5362523;32;35221;-72
2023/03/09 12:51:31;;;;;;;;;;;;;;;18.04;37.57;98820.53;5371222;32;36198;-69
2023/03/09 12:54:34;;;;;;;;;;;;;;;17.98;36.21;98816.62;5340995;32;36571;-65
2023/03/09 12:57:36;;;;;;;;;;;;;;;18.29;35.47;98843.78;5371237;32;34218;-67
2023/03/09 13:00:38;;;;;;;;;;;;;;;18.31;35.48;98823.19;5351479;32;35920;-81
2023/03/09 13:03:40;;;;;;;;;;;;;;;17.70;36.74;98828.94;5353095;32;36133;-67
2023/03/09 13:06:52;;;;;;;;;;;;;;;17.61;36.36;98848.41;5355962;32;34960;-67
2023/03/09 13:09:54;;;;;;;;;;;;;;;17.87;35.58;98830.91;5371731;32;37145;-80
2023/03/09 13:13:16;;;;;;;;;;;;;;;18.25;35.19;98842.41;5370995;32;34830;-71
2023/03/09 13:16:31;;;;;;;;;;;;;;;18.98;33.88;98836.28;5354727;32;44711;-74
2023/03/09 13:19:36;;;;;;;;;;;;;;;18.26;34.83;98841.41;5348574;32;36068;-73
2023/03/09 13:22:38;;;;;;;;;;;;;;;18.73;33.93;98836.03;5371856;32;33772;-67
2023/03/09 13:25:47;;;;;;;;;;;;;;;18.85;33.95;98852.63;5346065;32;44766;-71
2023/03/09 13:28:49;;;;;;;;;;;;;;;18.10;35.04;98857.16;5375021;32;34436;-67
2023/03/09 13:31:51;;;;;;;;;;;;;;;17.57;35.70;98854.97;5345918;32;35521;-71
2023/03/09 13:34:57;;;;;;;;;;;;;;;17.41;36.30;98866.19;5364094;32;37259;-69
2023/03/09 13:37:59;;;;;;;;;;;;;;;18.37;34.90;98869.66;5355490;32;34928;-65
2023/03/09 13:41:25;;;;;;;;;;;;;;;17.94;34.87;98873.69;5348806;32;44391;-77
2023/03/09 13:44:27;;;;;;;;;;;;;;;18.00;34.64;98875.78;5351762;32;35389;-70
2023/03/09 13:47:31;;;;;;;;;;;;;;;17.33;35.79;98892.59;5354721;32;34634;-76
2023/03/09 13:50:34;;;;;;;;;;;;;;;17.81;35.35;98895.25;5369713;32;35493;-77
2023/03/09 13:53:36;;;;;;;;;;;;;;;19.01;32.96;98882.09;5340186;32;36234;-67
2023/03/09 13:56:38;;;;;;;;;;;;;;;20.49;30.82;98893.00;5348762;32;34317;-73
2023/03/09 13:59:44;;;;;;;;;;;;;;;20.39;30.88;98897.56;5375624;32;36002;-71
2023/03/09 14:02:46;;;;;;;;;;;;;;;19.99;31.36;98901.66;5333609;32;34888;-67
2023/03/09 14:05:53;;;;;;;;;;;;;;;19.44;32.00;98894.66;5336665;32;34776;-79
2023/03/09 14:09:20;;;;;;;;;;;;;;;19.18;32.57;98899.91;5372075;32;46240;-68
2023/03/09 14:12:23;;;;;;;;;;;;;;;17.97;34.53;98912.44;5354993;32;35167;-68
2023/03/09 14:15:25;;;;;;;;;;;;;;;17.36;35.63;98915.38;5363368;32;34502;-69
2023/03/09 14:18:47;;;;;;;;;;;;;;;17.83;34.96;98909.22;5335292;32;34765;-66
2023/03/09 14:21:50;;;;;;;;;;;;;;;18.50;33.58;98911.87;5358516;32;36086;-66
2023/03/09 14:24:52;;;;;;;;;;;;;;;18.29;33.82;98909.41;5367179;32;34780;-78
2023/03/09 14:27:54;;;;;;;;;;;;;;;17.31;35.01;98929.06;5368883;32;35342;-78
2023/03/09 14:31:06;;;;;;;;;;;;;;;17.40;34.79;98928.25;5353977;32;35148;-67
2023/03/09 14:34:15;;;;;;;;;;;;;;;16.90;35.48;98911.53;5352579;32;44652;-68
2023/03/09 14:37:18;;;;;;;;;;;;;;;17.44;34.31;98897.75;5378045;32;35097;-67
2023/03/09 14:40:24;;;;;;;;;;;;;;;18.26;33.01;98910.56;5343975;32;36071;-70
2023/03/09 14:43:33;;;;;;;;;;;;;;;18.17;33.29;98918.56;5366809;32;34774;-78
2023/03/09 14:46:35;;;;;;;;;;;;;;;18.01;33.17;98909.34;5368383;32;33600;-70
2023/03/09 14:49:37;;;;;;;;;;;;;;;18.52;32.28;98904.59;5355580;32;33918;-74
2023/03/09 14:52:39;;;;;;;;;;;;;;;17.87;33.09;98905.31;5368092;32;47250;-71
2023/03/09 14:55:41;;;;;;;;;;;;;;;18.98;31.31;98902.84;5353507;32;34698;-76
2023/03/09 14:58:43;;;;;;;;;;;;;;;18.25;31.80;98906.22;5350342;32;34356;-72
2023/03/09 15:01:47;;;;;;;;;;;;;;;17.95;31.74;98893.97;5343364;32;35447;-59
2023/03/09 15:05:00;;;;;;;;;;;;;;;18.41;31.29;98893.13;5341941;32;36119;-63
2023/03/09 15:08:02;;;;;;;;;;;;;;;17.67;32.17;98900.97;5343796;32;36281;-62
2023/03/09 15:11:04;;;;;;;;;;;;;;;18.31;31.45;98897.66;5347869;32;34733;-75
2023/03/09 15:14:10;;;;;;;;;;;;;;;17.82;32.16;98901.41;5356480;32;34720;-62
2023/03/09 15:17:20;;;;;;;;;;;;;;;18.21;31.79;98912.78;5362359;32;48362;-63
2023/03/09 15:20:22;;;;;;;;;;;;;;;17.91;32.14;98915.69;5375125;32;36043;-63
2023/03/09 15:23:37;;;;;;;;;;;;;;;18.47;31.25;98928.13;5364182;32;35205;-71
2023/03/09 15:26:39;;;;;;;;;;;;;;;17.92;32.08;98912.03;5340997;32;44712;-74
2023/03/09 15:29:41;;;;;;;;;;;;;;;17.51;32.73;98911.31;5372631;32;35250;-62
2023/03/09 15:32:44;;;;;;;;;;;;;;;17.78;32.43;98910.66;5353046;32;35492;-74
2023/03/09 15:35:46;;;;;;;;;;;;;;;17.74;32.32;98918.06;5359395;32;35832;-74
2023/03/09 15:38:48;;;;;;;;;;;;;;;17.53;32.58;98933.28;5355962;32;35762;-61
2023/03/09 15:41:50;;;;;;;;;;;;;;;17.73;32.19;98927.03;5364683;32;35743;-62
2023/03/09 15:44:52;;;;;;;;;;;;;;;17.33;31.97;98930.62;5363846;32;34870;-62
2023/03/09 15:47:54;;;;;;;;;;;;;;;17.27;32.37;98939.13;5358738;32;34896;-70
2023/03/09 15:50:56;;;;;;;;;;;;;;;17.12;32.52;98947.59;5385717;32;35834;-73
2023/03/09 15:53:58;;;;;;;;;;;;;;;17.27;32.36;98952.41;5355077;32;35049;-62
2023/03/09 15:57:00;;;;;;;;;;;;;;;17.55;32.03;98958.72;5372023;32;35149;-74
2023/03/09 16:00:03;;;;;;;;;;;;;;;17.87;31.61;98957.63;5354060;32;35499;-62